^^

Metar (rayon 200 km actualisée toutes les 30 minutes)






LFBU - Brie/Champniers, France
Distance de la station: SSE 07km
Mise à jour: 25/07/2014 15:30
Pluie couvert, Broulliard, Orage
Pluie couvert, Broulliard, Orage
 Wind from S
Vent: S 26 km/h
Température: 18°C
Point de Rosée: 14°C
Humidité: 78%
Baromètre: 1013 hPa
Récapitulatifs: Pluie couvert, Broulliard
Nuages: Orage
Visibilité: 3 km
Nuages details: Quelques Nuages 335 m
partiellement nuageux 1219 m
nuageux 1768 m
2014/07/25 13:30 LFBU 251330Z AUTO 18014KT 3400 TSRA BR FEW011/// SCT040/// BKN058/// ///CB 18/14 Q1013
LFBG - Cognac/Chateaubernard, France
Distance de la station: OSO 35km
Mise à jour: 25/07/2014 15:30
Orage à proximité, Orage
Orage à proximité, Orage
 Wind from SSE
Vent: SSE 22 km/h
Température: 24°C
Point de Rosée: 17°C
Humidité: 65%
Baromètre: 1012 hPa
Récapitulatifs: Orage à Proximité
Nuages: Orage
Visibilité: 10 km
2014/07/25 13:30 LFBG 251330Z AUTO 15012KT 9999 VCTS ///CB 24/17 Q1012
 
LFBL - Limoges/Bellegarde, France
Distance de la station: E 82km
Mise à jour: 25/07/2014 15:30
Orage à proximité, Orage
Orage à proximité, Orage
 Wind from E
Vent: E 17 km/h
Température: 20°C
Point de Rosée: 16°C
Humidité: 78%
Baromètre: 1014 hPa
Récapitulatifs: Orage à Proximité
Nuages: Orage
Visibilité: 10 km
Nuages details: nuageux 457 m
nuageux 3962 m
nuageux 4572 m
2014/07/25 13:30 LFBL 251330Z AUTO 08009KT 9999 VCTS BKN015/// BKN130/// BKN150/// ///CB 20/16 Q1014
LFBI - Poitiers/France
Distance de la station: N 93km
Mise à jour: 25/07/2014 15:30
partiellement nuageux
partiellement nuageux
 Wind from N
Vent: N 7 km/h
Température: 28°C
Heat Index: 28°C
Point de Rosée: 14°C
Humidité: 42%
Baromètre: 1012 hPa
Nuages: partiellement nuageux
Visibilité: 10 km
2014/07/25 13:30 LFBI 251330Z AUTO 01004KT 280V060 9999 NSC 28/14 Q1012
 
LFBH - La Rochelle/France
Distance de la station: ONO 106km
Mise à jour: 25/07/2014 15:30
partiellement nuageux
partiellement nuageux
 Wind from ONO
Vent: ONO 24 km/h
Température: 26°C
Point de Rosée: 17°C
Humidité: 58%
Baromètre: 1012 hPa
Nuages: partiellement nuageux
Visibilité: 10 km
2014/07/25 13:30 LFBH 251330Z AUTO 30013KT 9999 NSC 26/17 Q1012
LFBE - Bergerac/France
Distance de la station: SSE 107km
Mise à jour: 25/07/2014 15:30
Orage à proximité, Orage
Orage à proximité, Orage
 Wind from O
Vent: O 11 km/h
Température: 22°C
Point de Rosée: 18°C
Humidité: 78%
Baromètre: 1014 hPa
Récapitulatifs: Orage à Proximité
Nuages: Orage
Visibilité: 10 km
2014/07/25 13:30 LFBE 251330Z AUTO 28006KT 9999 VCTS ///CB 22/18 Q1014
 
LFBD - Bordeaux/France
Distance de la station: SSO 121km
Mise à jour: 25/07/2014 15:30
Orage, Orage
Orage, Orage
 Wind from E
Vent: E 31 km/h
Température: 20°C
Point de Rosée: 15°C
Humidité: 73%
Baromètre: 1014 hPa
Récapitulatifs: Orage
Nuages: Orage
Visibilité: 10 km
Nuages details: Quelques Nuages 274 m
partiellement nuageux 1402 m
Couvert 1707 m
2014/07/25 13:30 LFBD 251330Z AUTO 10017KT 9999 TS FEW009/// SCT046/// OVC056/// ///CB 20/15 Q1014
LFRI - La Roche-sur-Yon/France
Distance de la station: NO 156km
Mise à jour: 25/07/2014 15:30
partiellement nuageux
partiellement nuageux
 Wind from N
Vent: N 13 km/h
Température: 28°C
Heat Index: 28°C
Point de Rosée: 15°C
Humidité: 45%
Baromètre: 1012 hPa
Nuages: partiellement nuageux
Visibilité: 10 km
2014/07/25 13:30 LFRI 251330Z AUTO 36007KT 9999 NSC 28/15 Q1012
 
LFBC - Cazaux/France
Distance de la station: SO 167km
Mise à jour: 25/07/2014 15:30
partiellement nuageux
partiellement nuageux
 Wind from ONO
Vent: ONO 19 km/h
Température: 27°C
Heat Index: 28°C
Point de Rosée: 19°C
Humidité: 62%
Baromètre: 1013 hPa
Nuages: partiellement nuageux
Visibilité: 10 km
2014/07/25 13:30 LFBC 251330Z AUTO 29010KT 240V330 9999 NSC 27/19 Q1013
LFLX - Chateauroux/France
Distance de la station: NE 174km
Mise à jour: 25/07/2014 15:30
clair
clair
 Wind from variable
Vent: variable 6 km/h
Température: 26°C
Point de Rosée: 15°C
Humidité: 51%
Baromètre: 1012 hPa
Récapitulatifs: clair
Visibilité: supérieure à 10 km
2014/07/25 13:30 LFLX 251330Z VRB03KT CAVOK 26/15 Q1012 NOSIG
 
LFBA - Agen/France
Distance de la station: SSE 179km
Mise à jour: 25/07/2014 15:30
Pluie avec éclaircies, Orage
Pluie avec éclaircies, Orage
 Wind from S
Vent: S 7 km/h
Température: 20°C
Point de Rosée: 18°C
Humidité: 88%
Baromètre: 1013 hPa
Récapitulatifs: Pluie Avec Eclaircies
Nuages: Orage
Visibilité: 10 km
2014/07/25 13:30 LFBA 251330Z AUTO 18004KT 130V290 9999 -TSRA ///CB 20/18 Q1013